createdAt,value
2022-11-28T00:01:36.070Z,8.23
2022-11-28T00:04:07.436Z,9.57
2022-11-28T00:06:37.453Z,8.17
2022-11-28T00:09:05.330Z,8.25
2022-11-28T00:11:31.909Z,8.43
2022-11-28T00:13:58.749Z,8.27
2022-11-28T00:16:25.744Z,8.63
2022-11-28T00:18:54.184Z,7.77
2022-11-28T00:21:22.947Z,9.18
2022-11-28T00:23:49.761Z,9.20
2022-11-28T00:26:18.613Z,7.50
2022-11-28T00:28:45.480Z,8.52
2022-11-28T00:31:13.408Z,8.97
2022-11-28T00:33:39.970Z,8.05
2022-11-28T00:36:07.196Z,8.45
2022-11-28T00:38:35.270Z,8.10
2022-11-28T00:41:03.746Z,8.25
2022-11-28T00:43:30.332Z,8.53
2022-11-28T00:45:57.267Z,7.40
2022-11-28T00:48:24.654Z,9.23
2022-11-28T00:50:51.850Z,9.00
2022-11-28T00:53:19.015Z,8.77
2022-11-28T00:55:47.097Z,6.93
2022-11-28T00:58:13.685Z,7.70
2022-11-28T01:00:40.477Z,8.52
2022-11-28T01:03:07.074Z,8.75
2022-11-28T01:05:39.198Z,9.73
2022-11-28T01:08:05.813Z,9.13
2022-11-28T01:10:32.402Z,9.43
2022-11-28T01:13:00.310Z,10.30
2022-11-28T01:15:27.020Z,9.80
2022-11-28T01:17:53.580Z,8.95
2022-11-28T01:20:20.066Z,8.03
2022-11-28T01:22:46.762Z,9.15
2022-11-28T01:25:13.296Z,9.10
2022-11-28T01:27:39.816Z,8.02
2022-11-28T01:30:08.594Z,8.15
2022-11-28T01:32:35.102Z,7.17
2022-11-28T01:35:01.629Z,8.55
2022-11-28T01:37:29.557Z,9.60
2022-11-28T01:39:56.587Z,8.85
2022-11-28T01:42:23.513Z,8.48
2022-11-28T01:45:16.788Z,8.13
2022-11-28T01:47:44.458Z,8.65
2022-11-28T01:50:12.746Z,7.88
2022-11-28T01:52:43.289Z,8.00
2022-11-28T01:55:12.719Z,8.52
2022-11-28T01:57:39.753Z,8.70
2022-11-28T02:00:09.671Z,9.02
2022-11-28T02:02:40.980Z,8.45
2022-11-28T02:05:08.341Z,8.57
2022-11-28T02:07:35.993Z,8.68
2022-11-28T02:10:06.277Z,9.57
2022-11-28T02:12:44.615Z,9.90
2022-11-28T02:15:33.114Z,9.00
2022-11-28T02:18:16.987Z,10.02
2022-11-28T02:21:13.993Z,9.80
2022-11-28T02:24:12.881Z,8.77
2022-11-28T02:27:04.896Z,8.48
2022-11-28T02:29:56.264Z,8.90
2022-11-28T02:32:35.864Z,9.35
2022-11-28T02:35:06.920Z,8.98
2022-11-28T02:37:41.672Z,9.37
2022-11-28T02:40:15.363Z,10.43
2022-11-28T02:42:53.526Z,8.98
2022-11-28T02:45:27.537Z,9.52
2022-11-28T02:48:02.278Z,10.02
2022-11-28T02:50:32.533Z,9.23
2022-11-28T02:53:05.754Z,9.98
2022-11-28T02:55:32.537Z,10.05
2022-11-28T02:57:59.251Z,11.07
2022-11-28T03:00:29.067Z,9.75
2022-11-28T03:03:12.297Z,11.43
2022-11-28T03:05:44.134Z,10.65
2022-11-28T03:08:25.498Z,8.88
2022-11-28T03:10:59.172Z,8.75
2022-11-28T03:13:32.809Z,9.52
2022-11-28T03:16:11.427Z,9.33
2022-11-28T03:18:41.972Z,9.20
2022-11-28T03:21:14.312Z,10.80
2022-11-28T03:23:44.811Z,10.27
2022-11-28T03:26:18.987Z,9.07
2022-11-28T03:28:51.727Z,10.30
2022-11-28T03:31:22.145Z,11.27
2022-11-28T03:33:54.014Z,9.40
2022-11-28T03:36:25.513Z,10.38
2022-11-28T03:38:59.010Z,9.50
2022-11-28T03:41:32.701Z,9.60
2022-11-28T03:44:01.437Z,9.82
2022-11-28T03:46:34.988Z,8.63
2022-11-28T03:49:05.788Z,8.52
2022-11-28T03:51:35.982Z,10.13
2022-11-28T03:54:07.154Z,8.83
2022-11-28T03:56:40.968Z,8.82
2022-11-28T03:59:13.391Z,10.05
2022-11-28T04:01:51.379Z,8.57
2022-11-28T04:04:26.906Z,9.07
2022-11-28T04:06:57.463Z,7.77
2022-11-28T04:09:37.398Z,9.07
2022-11-28T04:12:10.526Z,9.82
2022-11-28T04:14:41.877Z,10.40
2022-11-28T04:17:15.547Z,8.90
2022-11-28T04:19:49.626Z,9.47
2022-11-28T04:22:19.717Z,10.00
2022-11-28T04:24:50.305Z,10.68
2022-11-28T04:27:21.537Z,9.73
2022-11-28T04:29:53.476Z,8.88
2022-11-28T04:32:22.469Z,10.40
2022-11-28T04:34:57.432Z,11.15
2022-11-28T04:37:26.958Z,9.63
2022-11-28T04:39:55.382Z,12.13
2022-11-28T04:42:26.378Z,9.75
2022-11-28T04:44:57.443Z,11.00
2022-11-28T04:47:25.296Z,9.60
2022-11-28T04:49:54.293Z,9.95
2022-11-28T04:52:26.486Z,10.38
2022-11-28T04:54:59.390Z,10.68
2022-11-28T04:57:31.638Z,9.07
2022-11-28T05:00:01.367Z,12.13
2022-11-28T05:02:29.423Z,11.55
2022-11-28T05:04:57.909Z,11.23
2022-11-28T05:07:24.476Z,9.15
2022-11-28T05:09:51.209Z,9.53
2022-11-28T05:12:18.263Z,9.90
2022-11-28T05:14:44.885Z,10.60
2022-11-28T05:17:12.916Z,9.95
2022-11-28T05:19:39.453Z,9.15
2022-11-28T05:22:07.353Z,10.47
2022-11-28T05:24:33.925Z,10.82
2022-11-28T05:27:00.642Z,11.98
2022-11-28T05:29:27.202Z,10.57
2022-11-28T05:31:53.748Z,9.77
2022-11-28T05:34:20.315Z,9.43
2022-11-28T05:36:46.892Z,10.00
2022-11-28T05:39:14.785Z,10.27
2022-11-28T05:41:41.376Z,10.60
2022-11-28T05:44:07.935Z,9.82
2022-11-28T05:46:34.631Z,11.00
2022-11-28T05:49:01.166Z,10.57
2022-11-28T05:51:27.750Z,9.80
2022-11-28T05:53:54.330Z,9.98
2022-11-28T05:56:22.394Z,10.10
2022-11-28T05:58:49.342Z,9.43
2022-11-28T06:01:18.102Z,11.63
2022-11-28T06:03:45.371Z,12.25
2022-11-28T06:06:14.081Z,11.57
2022-11-28T06:08:40.762Z,12.05
2022-11-28T06:11:08.060Z,12.63
2022-11-28T06:13:36.591Z,13.75
2022-11-28T06:16:06.609Z,11.23
2022-11-28T06:18:33.229Z,9.98
2022-11-28T06:21:01.773Z,9.98
2022-11-28T06:23:28.510Z,13.43
2022-11-28T06:25:55.117Z,14.18
2022-11-28T06:28:21.618Z,11.13
2022-11-28T06:30:49.706Z,10.93
2022-11-28T06:33:16.276Z,10.77
2022-11-28T06:35:42.847Z,10.90
2022-11-28T06:38:14.102Z,11.73
2022-11-28T06:40:41.060Z,14.50
2022-11-28T06:43:07.668Z,15.82
2022-11-28T06:45:34.828Z,14.63
2022-11-28T06:48:02.868Z,14.97
2022-11-28T06:50:29.607Z,13.75
2022-11-28T06:52:56.186Z,13.13
2022-11-28T06:55:22.803Z,13.75
2022-11-28T06:57:49.466Z,12.57
2022-11-28T07:00:17.078Z,12.43
2022-11-28T07:02:43.653Z,13.32
2022-11-28T07:05:11.619Z,15.02
2022-11-28T07:07:50.258Z,13.27
2022-11-28T07:10:20.641Z,12.88
2022-11-28T07:12:47.210Z,13.57
2022-11-28T07:15:13.738Z,12.82
2022-11-28T07:17:40.262Z,13.00
2022-11-28T07:20:08.156Z,13.40
2022-11-28T07:22:36.060Z,14.25
2022-11-28T07:25:02.743Z,12.33
2022-11-28T07:27:29.338Z,14.02
2022-11-28T07:29:56.014Z,12.48
2022-11-28T07:32:22.595Z,11.30
2022-11-28T07:34:50.361Z,12.27
2022-11-28T07:37:17.007Z,11.57
2022-11-28T07:39:45.110Z,11.38
2022-11-28T07:42:12.237Z,11.45
2022-11-28T07:44:38.891Z,13.88
2022-11-28T07:47:05.555Z,11.68
2022-11-28T07:49:32.523Z,11.80
2022-11-28T07:51:59.107Z,13.15
2022-11-28T07:54:25.808Z,13.15
2022-11-28T07:59:40.444Z,12.18
2022-11-28T08:02:07.392Z,11.67
2022-11-28T08:04:34.286Z,12.88
2022-11-28T08:07:00.879Z,11.73
2022-11-28T08:09:27.637Z,12.00
2022-11-28T08:11:55.528Z,11.82
2022-11-28T08:14:22.122Z,14.77
2022-11-28T08:16:48.905Z,11.88
2022-11-28T08:19:15.897Z,11.95
2022-11-28T08:21:42.656Z,13.50
2022-11-28T08:24:10.794Z,13.77
2022-11-28T08:26:38.143Z,11.03
2022-11-28T08:29:06.042Z,11.95
2022-11-28T08:31:34.809Z,12.55
2022-11-28T08:34:03.747Z,11.25
2022-11-28T08:36:30.742Z,11.85
2022-11-28T08:41:45.660Z,11.23
2022-11-28T08:44:13.625Z,11.68
2022-11-28T08:46:40.176Z,13.65
2022-11-28T08:49:06.747Z,11.98
2022-11-28T08:51:33.443Z,13.47
2022-11-28T08:54:00.239Z,12.13
2022-11-28T08:56:27.361Z,11.65
2022-11-28T08:58:54.307Z,48.63
2022-11-28T09:01:23.648Z,25.02
2022-11-28T09:03:51.092Z,15.33
2022-11-28T09:06:18.262Z,14.90
2022-11-28T09:08:45.275Z,17.75
2022-11-28T09:11:14.180Z,16.60
2022-11-28T09:13:41.629Z,16.58
2022-11-28T09:16:08.925Z,19.37
2022-11-28T09:18:37.207Z,19.65
2022-11-28T09:21:06.344Z,17.42
2022-11-28T09:23:33.003Z,15.07
2022-11-28T09:25:59.592Z,15.43
2022-11-28T09:28:26.426Z,18.77
2022-11-28T09:31:00.244Z,17.55
2022-11-28T09:33:27.004Z,28.10
2022-11-28T09:35:54.857Z,20.23
2022-11-28T09:38:21.534Z,17.65
2022-11-28T09:40:48.966Z,18.33
2022-11-28T09:43:20.375Z,19.45
2022-11-28T09:45:50.695Z,24.00
2022-11-28T09:48:25.591Z,21.02
2022-11-28T09:50:57.351Z,20.25
2022-11-28T09:53:28.622Z,19.43
2022-11-28T09:55:59.810Z,22.23
2022-11-28T09:58:30.646Z,18.45
2022-11-28T10:01:06.262Z,15.18
2022-11-28T10:03:39.096Z,18.33
2022-11-28T10:06:14.754Z,13.50
2022-11-28T10:08:54.984Z,14.45
2022-11-28T10:11:34.213Z,16.40
2022-11-28T10:14:09.371Z,18.92
2022-11-28T10:16:46.101Z,15.20
2022-11-28T10:19:46.214Z,16.50
2022-11-28T10:22:09.842Z,12.98
2022-11-28T10:24:41.019Z,16.02
2022-11-28T10:27:12.067Z,13.27
2022-11-28T10:29:47.809Z,14.73
2022-11-28T10:32:16.817Z,12.50
2022-11-28T10:34:49.568Z,22.40
2022-11-28T10:37:23.876Z,16.58
2022-11-28T10:39:50.981Z,17.50
2022-11-28T10:42:22.701Z,19.63
2022-11-28T10:45:13.856Z,17.23
2022-11-28T10:47:53.219Z,16.25
2022-11-28T10:50:29.309Z,17.75
2022-11-28T10:53:07.803Z,16.05
2022-11-28T10:55:44.466Z,13.57
2022-11-28T10:58:21.588Z,15.73
2022-11-28T11:00:48.507Z,15.40
2022-11-28T11:03:18.188Z,15.63
2022-11-28T11:05:45.173Z,15.45
2022-11-28T11:08:19.382Z,17.02
2022-11-28T11:10:49.684Z,16.97
2022-11-28T11:13:18.433Z,12.05
2022-11-28T11:15:45.300Z,11.77
2022-11-28T11:18:22.371Z,12.43
2022-11-28T11:20:49.157Z,11.63
2022-11-28T11:23:19.003Z,11.67
2022-11-28T11:25:49.495Z,14.82
2022-11-28T11:28:41.251Z,13.13
2022-11-28T11:31:18.679Z,13.27
2022-11-28T11:33:45.983Z,12.20
2022-11-28T11:36:27.919Z,15.57
2022-11-28T11:39:23.755Z,14.70
2022-11-28T11:42:09.325Z,13.45
2022-11-28T11:44:36.193Z,15.73
2022-11-28T11:47:05.336Z,14.73
2022-11-28T11:49:34.023Z,15.43
2022-11-28T11:52:05.689Z,14.95
2022-11-28T11:54:33.732Z,17.17
2022-11-28T11:57:30.566Z,17.33
2022-11-28T11:59:53.089Z,17.75
2022-11-28T12:02:25.672Z,19.77
2022-11-28T12:04:59.113Z,19.67
2022-11-28T12:07:31.932Z,17.08
2022-11-28T12:12:46.975Z,17.00
2022-11-28T12:15:18.388Z,21.90
2022-11-28T12:17:59.017Z,19.73
2022-11-28T12:20:37.763Z,17.55
2022-11-28T12:23:21.222Z,16.27
2022-11-28T12:25:55.468Z,23.45
2022-11-28T12:28:38.720Z,16.93
2022-11-28T12:31:14.567Z,16.17
2022-11-28T12:33:52.396Z,16.00
2022-11-28T12:36:26.126Z,14.80
2022-11-28T12:38:59.769Z,15.25
2022-11-28T12:41:53.839Z,14.47
2022-11-28T12:44:29.350Z,15.38
2022-11-28T12:47:07.604Z,14.35
2022-11-28T12:49:42.867Z,18.70
2022-11-28T12:52:22.539Z,19.50
2022-11-28T12:55:11.484Z,30.13
2022-11-28T12:57:48.051Z,20.60
2022-11-28T13:00:18.445Z,16.50
2022-11-28T13:02:55.315Z,17.73
2022-11-28T13:05:30.306Z,16.65
2022-11-28T13:08:43.286Z,17.93
2022-11-28T13:11:27.794Z,15.32
2022-11-28T13:14:02.696Z,15.77
2022-11-28T13:16:38.817Z,15.07
2022-11-28T13:19:12.121Z,16.38
2022-11-28T13:21:45.784Z,15.27
2022-11-28T13:24:27.563Z,13.23
2022-11-28T13:27:04.602Z,13.27
2022-11-28T13:29:40.382Z,15.65
2022-11-28T13:32:13.398Z,15.55
2022-11-28T13:34:40.661Z,13.63
2022-11-28T13:40:13.270Z,15.10
2022-11-28T13:43:04.373Z,14.93
2022-11-28T13:45:35.901Z,15.25
2022-11-28T13:51:32.082Z,17.17
2022-11-28T13:54:44.042Z,49.53
2022-11-28T13:57:21.749Z,24.27
2022-11-28T13:59:51.794Z,15.80
2022-11-28T14:02:24.293Z,14.50
2022-11-28T14:04:51.069Z,14.52
2022-11-28T14:07:24.913Z,14.40
2022-11-28T14:10:04.042Z,13.65
2022-11-28T14:12:37.498Z,15.95
2022-11-28T14:15:20.357Z,13.20
2022-11-28T14:18:24.829Z,16.13
2022-11-28T14:20:57.616Z,16.17
2022-11-28T14:23:32.065Z,16.27
2022-11-28T14:25:58.969Z,15.48
2022-11-28T14:28:28.728Z,15.93
2022-11-28T14:31:03.884Z,15.43
2022-11-28T14:33:38.009Z,15.77
2022-11-28T14:36:21.930Z,14.65
2022-11-28T14:39:01.200Z,16.92
2022-11-28T14:41:27.925Z,16.77
2022-11-28T14:43:54.500Z,14.40
2022-11-28T14:46:29.762Z,15.63
2022-11-28T14:49:23.084Z,14.32
2022-11-28T14:55:15.976Z,14.17
2022-11-28T14:57:54.006Z,15.10
2022-11-28T15:00:24.228Z,19.08
2022-11-28T15:03:05.661Z,16.98
2022-11-28T15:05:39.631Z,15.55
2022-11-28T15:08:30.621Z,17.57
2022-11-28T15:11:09.934Z,18.35
2022-11-28T15:13:53.661Z,18.33
2022-11-28T15:16:22.902Z,15.85
2022-11-28T15:18:52.261Z,14.73
2022-11-28T15:21:21.751Z,15.70
2022-11-28T15:23:49.216Z,17.10
2022-11-28T15:26:20.135Z,18.13
2022-11-28T15:28:46.994Z,18.70
2022-11-28T15:31:21.582Z,16.67
2022-11-28T15:33:48.997Z,16.97
2022-11-28T15:36:27.348Z,17.23
2022-11-28T15:38:54.943Z,17.52
2022-11-28T15:41:24.125Z,16.30
2022-11-28T15:43:51.901Z,17.42
2022-11-28T15:46:21.360Z,16.27
2022-11-28T15:48:49.694Z,17.55
2022-11-28T15:51:31.012Z,18.30
2022-11-28T15:53:57.580Z,14.80
2022-11-28T15:56:24.180Z,17.13
2022-11-28T15:58:51.259Z,17.00
2022-11-28T16:01:19.662Z,15.20
2022-11-28T16:03:54.538Z,19.80
2022-11-28T16:06:23.419Z,17.38
2022-11-28T16:08:54.857Z,15.10
2022-11-28T16:11:23.966Z,16.50
2022-11-28T16:13:51.836Z,15.25
2022-11-28T16:16:22.674Z,15.82
2022-11-28T16:18:56.355Z,22.63
2022-11-28T16:21:26.039Z,21.95
2022-11-28T16:23:53.907Z,24.90
2022-11-28T16:26:24.358Z,24.10
2022-11-28T16:28:58.970Z,24.08
2022-11-28T16:31:27.892Z,33.90
2022-11-28T16:33:55.156Z,22.10
2022-11-28T16:36:24.459Z,20.20
2022-11-28T16:39:03.163Z,18.35
2022-11-28T16:41:29.851Z,20.73
2022-11-28T16:44:00.607Z,22.58
2022-11-28T16:46:35.286Z,25.80
2022-11-28T16:49:03.204Z,23.33
2022-11-28T16:51:33.106Z,17.55
2022-11-28T16:54:24.391Z,19.40
2022-11-28T16:56:55.926Z,19.88
2022-11-28T16:59:25.009Z,18.52
2022-11-28T17:01:53.400Z,20.27
2022-11-28T17:04:22.235Z,20.75
2022-11-28T17:06:49.931Z,22.88
2022-11-28T17:09:18.461Z,24.77
2022-11-28T17:11:50.633Z,26.25
2022-11-28T17:14:17.199Z,22.87
2022-11-28T17:16:45.823Z,19.63
2022-11-28T17:19:14.161Z,22.67
2022-11-28T17:21:43.484Z,23.15
2022-11-28T17:24:16.366Z,22.88
2022-11-28T17:26:44.449Z,23.63
2022-11-28T17:29:13.291Z,20.08
2022-11-28T17:31:39.886Z,20.88
2022-11-28T17:34:06.493Z,24.05
2022-11-28T17:36:33.026Z,26.95
2022-11-28T17:39:04.825Z,19.90
2022-11-28T17:41:31.935Z,19.15
2022-11-28T17:43:59.813Z,19.63
2022-11-28T17:46:26.416Z,23.40
2022-11-28T17:48:52.969Z,25.85
2022-11-28T17:51:19.478Z,19.90
2022-11-28T17:53:46.125Z,20.05
2022-11-28T17:56:13.609Z,20.10
2022-11-28T17:58:40.204Z,23.42
2022-11-28T18:01:11.827Z,18.50
2022-11-28T18:03:38.810Z,16.80
2022-11-28T18:06:06.438Z,19.42
2022-11-28T18:08:33.356Z,19.55
2022-11-28T18:11:03.700Z,23.85
2022-11-28T18:13:30.771Z,27.73
2022-11-28T18:15:57.445Z,24.00
2022-11-28T18:18:25.748Z,25.38
2022-11-28T18:20:52.307Z,30.70
2022-11-28T18:23:19.048Z,25.27
2022-11-28T18:25:46.125Z,30.15
2022-11-28T18:28:18.587Z,26.10
2022-11-28T18:30:46.553Z,23.98
2022-11-28T18:33:13.787Z,24.05
2022-11-28T18:35:41.691Z,24.60
2022-11-28T18:38:09.039Z,22.33
2022-11-28T18:40:36.592Z,22.00
2022-11-28T18:43:03.653Z,21.85
2022-11-28T18:45:30.288Z,26.75
2022-11-28T18:48:00.154Z,22.52
2022-11-28T18:50:27.266Z,25.80
2022-11-28T18:52:55.214Z,27.50
2022-11-28T18:55:21.842Z,23.45
2022-11-28T18:57:48.439Z,38.70
2022-11-28T19:00:16.058Z,25.70
2022-11-28T19:02:42.806Z,25.75
2022-11-28T19:05:09.374Z,24.30
2022-11-28T19:07:35.973Z,121.13
2022-11-28T19:10:04.682Z,92.40
2022-11-28T19:12:31.228Z,34.85
2022-11-28T19:15:02.117Z,31.83
2022-11-28T19:17:29.623Z,27.23
2022-11-28T19:19:56.484Z,33.25
2022-11-28T19:22:23.325Z,35.33
2022-11-28T19:24:50.122Z,37.90
2022-11-28T19:27:18.535Z,28.23
2022-11-28T19:29:45.585Z,28.23
2022-11-28T19:32:12.496Z,25.98
2022-11-28T19:34:39.218Z,25.15
2022-11-28T19:37:06.294Z,26.23
2022-11-28T19:39:33.004Z,26.67
2022-11-28T19:42:02.551Z,24.77
2022-11-28T19:44:30.745Z,27.63
2022-11-28T19:46:57.501Z,27.58
2022-11-28T19:49:24.878Z,25.65
2022-11-28T19:51:52.623Z,27.33
2022-11-28T19:54:19.748Z,24.47
2022-11-28T19:56:46.753Z,23.00
2022-11-28T19:59:13.521Z,22.77
2022-11-28T20:01:41.638Z,26.02
2022-11-28T20:04:09.634Z,24.63
2022-11-28T20:06:36.315Z,26.00
2022-11-28T20:09:06.669Z,22.15
2022-11-28T20:11:35.747Z,22.75
2022-11-28T20:14:04.923Z,24.48
2022-11-28T20:16:32.566Z,22.33
2022-11-28T20:19:01.744Z,24.07
2022-11-28T20:21:29.305Z,27.35
2022-11-28T20:23:58.550Z,23.00
2022-11-28T20:26:26.614Z,25.30
2022-11-28T20:28:55.011Z,22.80
2022-11-28T20:31:23.852Z,22.20
2022-11-28T20:33:52.422Z,19.35
2022-11-28T20:36:22.499Z,21.25
2022-11-28T20:38:50.065Z,20.00
2022-11-28T20:41:20.005Z,20.85
2022-11-28T20:43:50.758Z,19.47
2022-11-28T20:46:20.466Z,17.10
2022-11-28T20:48:48.021Z,21.92
2022-11-28T20:51:17.277Z,18.25
2022-11-28T20:53:46.102Z,15.77
2022-11-28T20:56:17.667Z,17.37
2022-11-28T20:58:44.547Z,16.67
2022-11-28T21:01:14.166Z,17.25
2022-11-28T21:03:44.024Z,17.08
2022-11-28T21:06:11.089Z,16.17
2022-11-28T21:08:37.986Z,15.83
2022-11-28T21:11:07.534Z,14.10
2022-11-28T21:13:34.162Z,17.52
2022-11-28T21:16:04.903Z,14.93
2022-11-28T21:18:31.998Z,15.43
2022-11-28T21:20:58.669Z,15.90
2022-11-28T21:23:25.287Z,16.45
2022-11-28T21:25:51.867Z,16.35
2022-11-28T21:28:19.749Z,18.95
2022-11-28T21:30:46.996Z,15.90
2022-11-28T21:33:13.738Z,16.63
2022-11-28T21:35:40.570Z,16.00
2022-11-28T21:38:07.741Z,15.43
2022-11-28T21:40:34.444Z,13.60
2022-11-28T21:43:01.238Z,14.02
2022-11-28T21:45:29.193Z,12.90
2022-11-28T21:47:55.794Z,15.18
2022-11-28T21:50:22.564Z,13.05
2022-11-28T21:52:49.164Z,13.57
2022-11-28T21:55:16.002Z,13.80
2022-11-28T21:57:42.578Z,13.63
2022-11-28T22:00:20.711Z,11.88
2022-11-28T22:03:03.915Z,14.05
2022-11-28T22:05:33.210Z,14.68
2022-11-28T22:08:00.304Z,14.35
2022-11-28T22:10:39.221Z,15.60
2022-11-28T22:13:05.865Z,13.32
2022-11-28T22:15:32.370Z,16.25
2022-11-28T22:18:00.453Z,13.80
2022-11-28T22:20:26.969Z,17.17
2022-11-28T22:22:53.525Z,14.37
2022-11-28T22:25:20.247Z,17.50
2022-11-28T22:27:46.803Z,15.27
2022-11-28T22:30:13.575Z,14.05
2022-11-28T22:32:40.191Z,13.82
2022-11-28T22:35:09.277Z,13.40
2022-11-28T22:37:35.848Z,12.40
2022-11-28T22:40:02.593Z,12.70
2022-11-28T22:42:29.102Z,12.52
2022-11-28T22:44:55.789Z,12.73
2022-11-28T22:47:22.384Z,12.37
2022-11-28T22:49:48.977Z,12.60
2022-11-28T22:52:16.944Z,12.77
2022-11-28T22:54:43.802Z,11.73
2022-11-28T22:57:13.199Z,11.63
2022-11-28T22:59:39.699Z,13.20
2022-11-28T23:02:06.309Z,12.45
2022-11-28T23:04:32.998Z,12.77
2022-11-28T23:06:59.570Z,10.18
2022-11-28T23:09:27.619Z,12.35
2022-11-28T23:11:54.169Z,11.27
2022-11-28T23:14:20.782Z,13.13
2022-11-28T23:16:47.588Z,11.65
2022-11-28T23:19:16.577Z,11.30
2022-11-28T23:21:45.123Z,10.25
2022-11-28T23:24:13.405Z,12.80
2022-11-28T23:26:42.106Z,12.25
2022-11-28T23:29:09.111Z,12.50
2022-11-28T23:31:38.576Z,9.77
2022-11-28T23:34:05.554Z,12.43
2022-11-28T23:36:38.465Z,10.57
2022-11-28T23:39:11.657Z,11.07
2022-11-28T23:41:38.510Z,10.95
2022-11-28T23:44:06.679Z,10.05
2022-11-28T23:46:33.478Z,12.18
2022-11-28T23:48:59.997Z,12.37
2022-11-28T23:51:26.593Z,11.88
2022-11-28T23:53:53.720Z,11.80
2022-11-28T23:56:22.098Z,11.77
2022-11-28T23:58:49.296Z,12.93
